Columbus, WI (53925)

1:04 PM CDT on April 27, 2017 (GMT -0500)
Vista Circle | | Change Station

Elev 384 ft 43.32 °N, 89.03 °W | Updated 4 minutes ago

Overcast
Overcast
38.8 °F
Feels Like 31 °F
N
14.0
Wind Variable Wind from West
Gusts 14.0 mph

Today
High -- | Low -- °F
--% Chance of Precip.
Yesterday
High -- | Low -- °F
Precip. -- in
Pressure 29.54 in
Visibility 10.0 miles
Clouds Mostly Cloudy 1600 ft
Mostly Cloudy 2100 ft
Overcast 7500 ft
Windchill 31 °F
Dew Point 34 °F
Humidity 84%
Rainfall 0.83 in
Snow Depth Not available.
5:54 AM 7:53 PM
New Moon, 2% visible
METAR KUNU 271755Z AUTO 25015G20KT 10SM BKN016 BKN021 OVC075 03/00 A2954 RMK AO2 60009 T00260000 10049 20017
Pressure 29.54 in
Visibility 10.0 miles
Clouds Mostly Cloudy 1600 ft
Mostly Cloudy 2100 ft
Overcast 7500 ft
Windchill 31 °F
Dew Point 34 °F
Humidity 84%
Rainfall 0.83 in
Snow Depth Not available.
5:54 AM 7:53 PM
New Moon, 2% visible
METAR KUNU 271755Z AUTO 25015G20KT 10SM BKN016 BKN021 OVC075 03/00 A2954 RMK AO2 60009 T00260000 10049 20017

Get Severe Weather Alerts

Thanks for signing up!

Be on the lookout for a verification email in your inbox.

You'll start receiving the daily forecast at 8 AM.

×

10-Day Weather Forecast

Almanac

Astronomy

Apr. 27, 2017 Rise Set
Actual Time
Civil Twilight
Nautical Twilight
Astronomical Twilight
Moon
Length of Visible Light
Length of Day
Tomorrow will be .
, % of the Moon is Illuminated

Today's Extremes

State Highs State Lows

Community

WunderPhotos

WunderBlog® & News

Nearby

Air Quality

  Air Quality AQ Index Pollutant
Not available.

Snow Depth

Station Depth Elevation

Earthquake Activity

City Distance Mag. Time & Date
Minimum magnitude displayed is 2.5.

Coastal Water Temperatures

Place Temperature

Stations

Nearby Weather Stations

Station Location Temp. Windchill Dew Point Humidity Wind Precip. Elev Updated Type
                   

Watches & Warnings

There are currently no watches in effect.